Terminal Aerodrome Forecast
Issued by NWS Albuquerque, NM

Home | Current Version | Previous Version | Text Only | Print | Product List | Glossary On
Versions: 1 2 3 4 5 6 7 8 9 10 11 12 13
000
FTUS45 KABQ 041139
TAFABQ
TAF
KABQ 041139Z 0412/0512 VRB06KT P6SM BKN120
     FM041800 20009KT P6SM VCSH BKN100
     FM042200 20018G28KT P6SM VCSH BKN090
      TEMPO 0422/0501 VRB18G28KT 6SM -TSRA BKN080CB
     FM050100 16012G20KT P6SM VCSH BKN090
     FM050500 16006KT P6SM VCSH BKN090=

USA.gov is the U.S. government's official web portal to all federal, state and local government web resources and services.